sensor_id;sensor_type;location;lat;lon;timestamp;P1;durP1;ratioP1;P2;durP2;ratioP2
38940;SDS011;43236;47.208;7.518;2022-08-21T00:00:30;3.75;;;1.10;;
38940;SDS011;43236;47.208;7.518;2022-08-21T00:03:17;4.82;;;1.30;;
38940;SDS011;43236;47.208;7.518;2022-08-21T00:06:04;2.75;;;1.15;;
38940;SDS011;43236;47.208;7.518;2022-08-21T00:08:51;2.38;;;1.20;;
38940;SDS011;43236;47.208;7.518;2022-08-21T00:11:39;7.65;;;1.30;;
38940;SDS011;43236;47.208;7.518;2022-08-21T00:14:26;2.78;;;1.10;;
38940;SDS011;43236;47.208;7.518;2022-08-21T00:17:15;11.30;;;1.73;;
38940;SDS011;43236;47.208;7.518;2022-08-21T00:20:03;4.97;;;1.50;;
38940;SDS011;43236;47.208;7.518;2022-08-21T00:22:52;6.72;;;1.70;;
38940;SDS011;43236;47.208;7.518;2022-08-21T00:25:40;3.90;;;1.33;;
38940;SDS011;43236;47.208;7.518;2022-08-21T00:28:27;2.55;;;1.20;;
38940;SDS011;43236;47.208;7.518;2022-08-21T00:31:15;3.55;;;1.30;;
38940;SDS011;43236;47.208;7.518;2022-08-21T00:34:04;5.75;;;1.27;;
38940;SDS011;43236;47.208;7.518;2022-08-21T00:36:52;3.20;;;1.30;;
38940;SDS011;43236;47.208;7.518;2022-08-21T00:39:39;3.35;;;1.33;;
38940;SDS011;43236;47.208;7.518;2022-08-21T00:42:27;8.45;;;1.30;;
38940;SDS011;43236;47.208;7.518;2022-08-21T00:45:15;5.32;;;1.13;;
38940;SDS011;43236;47.208;7.518;2022-08-21T00:48:03;5.95;;;1.33;;
38940;SDS011;43236;47.208;7.518;2022-08-21T00:50:54;2.67;;;1.17;;
38940;SDS011;43236;47.208;7.518;2022-08-21T00:53:44;4.67;;;1.50;;
38940;SDS011;43236;47.208;7.518;2022-08-21T00:56:32;4.13;;;1.70;;
38940;SDS011;43236;47.208;7.518;2022-08-21T00:59:20;3.38;;;1.40;;
38940;SDS011;43236;47.208;7.518;2022-08-21T01:02:08;6.25;;;1.40;;
38940;SDS011;43236;47.208;7.518;2022-08-21T01:04:55;4.88;;;1.40;;
38940;SDS011;43236;47.208;7.518;2022-08-21T01:07:44;8.27;;;1.27;;
38940;SDS011;43236;47.208;7.518;2022-08-21T01:10:31;3.05;;;1.00;;
38940;SDS011;43236;47.208;7.518;2022-08-21T01:13:18;5.72;;;1.30;;
38940;SDS011;43236;47.208;7.518;2022-08-21T01:16:09;9.98;;;1.20;;
38940;SDS011;43236;47.208;7.518;2022-08-21T01:18:57;5.82;;;1.20;;
38940;SDS011;43236;47.208;7.518;2022-08-21T01:21:46;2.03;;;0.95;;
38940;SDS011;43236;47.208;7.518;2022-08-21T01:24:33;5.25;;;1.00;;
38940;SDS011;43236;47.208;7.518;2022-08-21T01:27:21;7.05;;;1.30;;
38940;SDS011;43236;47.208;7.518;2022-08-21T01:30:09;4.38;;;1.30;;
38940;SDS011;43236;47.208;7.518;2022-08-21T01:33:00;3.25;;;1.58;;
38940;SDS011;43236;47.208;7.518;2022-08-21T01:35:47;5.25;;;1.92;;
38940;SDS011;43236;47.208;7.518;2022-08-21T01:38:36;5.35;;;1.75;;
38940;SDS011;43236;47.208;7.518;2022-08-21T01:41:23;3.45;;;1.98;;
38940;SDS011;43236;47.208;7.518;2022-08-21T01:44:10;6.10;;;1.75;;
38940;SDS011;43236;47.208;7.518;2022-08-21T01:46:58;4.93;;;1.88;;
38940;SDS011;43236;47.208;7.518;2022-08-21T01:49:46;6.97;;;2.20;;
38940;SDS011;43236;47.208;7.518;2022-08-21T01:52:33;6.65;;;1.98;;
38940;SDS011;43236;47.208;7.518;2022-08-21T01:55:22;4.65;;;2.47;;
38940;SDS011;43236;47.208;7.518;2022-08-21T01:58:09;4.05;;;2.38;;
38940;SDS011;43236;47.208;7.518;2022-08-21T02:00:56;5.40;;;2.63;;
38940;SDS011;43236;47.208;7.518;2022-08-21T02:03:44;5.05;;;2.42;;
38940;SDS011;43236;47.208;7.518;2022-08-21T02:06:31;5.55;;;2.45;;
38940;SDS011;43236;47.208;7.518;2022-08-21T02:09:18;10.90;;;2.90;;
38940;SDS011;43236;47.208;7.518;2022-08-21T02:12:08;4.78;;;2.63;;
38940;SDS011;43236;47.208;7.518;2022-08-21T02:14:55;7.63;;;2.65;;
38940;SDS011;43236;47.208;7.518;2022-08-21T02:17:44;4.57;;;2.80;;
38940;SDS011;43236;47.208;7.518;2022-08-21T02:20:35;9.00;;;3.10;;
38940;SDS011;43236;47.208;7.518;2022-08-21T02:23:23;8.70;;;2.90;;
38940;SDS011;43236;47.208;7.518;2022-08-21T02:26:11;9.98;;;3.92;;
38940;SDS011;43236;47.208;7.518;2022-08-21T02:29:01;9.25;;;3.88;;
38940;SDS011;43236;47.208;7.518;2022-08-21T02:31:49;7.50;;;3.40;;
38940;SDS011;43236;47.208;7.518;2022-08-21T02:34:36;4.93;;;2.97;;
38940;SDS011;43236;47.208;7.518;2022-08-21T02:37:23;10.55;;;3.10;;
38940;SDS011;43236;47.208;7.518;2022-08-21T02:40:11;7.07;;;3.10;;
38940;SDS011;43236;47.208;7.518;2022-08-21T02:43:02;5.97;;;2.60;;
38940;SDS011;43236;47.208;7.518;2022-08-21T02:45:52;7.57;;;2.65;;
38940;SDS011;43236;47.208;7.518;2022-08-21T02:48:39;5.18;;;2.58;;
38940;SDS011;43236;47.208;7.518;2022-08-21T02:51:27;5.05;;;2.50;;
38940;SDS011;43236;47.208;7.518;2022-08-21T02:54:14;8.20;;;2.78;;
38940;SDS011;43236;47.208;7.518;2022-08-21T02:57:01;6.47;;;2.53;;
38940;SDS011;43236;47.208;7.518;2022-08-21T02:59:48;5.38;;;2.38;;
38940;SDS011;43236;47.208;7.518;2022-08-21T03:02:37;9.73;;;2.55;;
38940;SDS011;43236;47.208;7.518;2022-08-21T03:05:24;5.15;;;2.50;;
38940;SDS011;43236;47.208;7.518;2022-08-21T03:08:13;4.53;;;2.28;;
38940;SDS011;43236;47.208;7.518;2022-08-21T03:11:02;4.85;;;2.50;;
38940;SDS011;43236;47.208;7.518;2022-08-21T03:13:49;6.35;;;2.00;;
38940;SDS011;43236;47.208;7.518;2022-08-21T03:16:36;5.78;;;2.00;;
38940;SDS011;43236;47.208;7.518;2022-08-21T03:19:25;7.72;;;2.42;;
38940;SDS011;43236;47.208;7.518;2022-08-21T03:22:12;5.05;;;2.10;;
38940;SDS011;43236;47.208;7.518;2022-08-21T03:24:59;5.78;;;2.30;;
38940;SDS011;43236;47.208;7.518;2022-08-21T03:27:46;6.80;;;2.38;;
38940;SDS011;43236;47.208;7.518;2022-08-21T03:30:34;8.23;;;2.53;;
38940;SDS011;43236;47.208;7.518;2022-08-21T03:33:22;9.13;;;2.67;;
38940;SDS011;43236;47.208;7.518;2022-08-21T03:36:10;6.63;;;2.92;;
38940;SDS011;43236;47.208;7.518;2022-08-21T03:38:58;9.75;;;3.95;;
38940;SDS011;43236;47.208;7.518;2022-08-21T03:41:45;8.38;;;4.28;;
38940;SDS011;43236;47.208;7.518;2022-08-21T03:44:32;15.18;;;4.05;;
38940;SDS011;43236;47.208;7.518;2022-08-21T03:47:19;7.47;;;3.80;;
38940;SDS011;43236;47.208;7.518;2022-08-21T03:50:07;6.75;;;3.70;;
38940;SDS011;43236;47.208;7.518;2022-08-21T03:52:57;10.88;;;3.95;;
38940;SDS011;43236;47.208;7.518;2022-08-21T03:55:45;9.10;;;3.80;;
38940;SDS011;43236;47.208;7.518;2022-08-21T03:58:33;9.68;;;4.13;;
38940;SDS011;43236;47.208;7.518;2022-08-21T04:01:20;10.60;;;4.57;;
38940;SDS011;43236;47.208;7.518;2022-08-21T04:04:08;8.90;;;4.05;;
38940;SDS011;43236;47.208;7.518;2022-08-21T04:06:55;10.05;;;4.47;;
38940;SDS011;43236;47.208;7.518;2022-08-21T04:09:44;10.15;;;4.43;;
38940;SDS011;43236;47.208;7.518;2022-08-21T04:12:31;7.82;;;3.50;;
38940;SDS011;43236;47.208;7.518;2022-08-21T04:15:19;5.90;;;3.03;;
38940;SDS011;43236;47.208;7.518;2022-08-21T04:18:07;6.78;;;2.30;;
38940;SDS011;43236;47.208;7.518;2022-08-21T04:20:55;6.40;;;2.33;;
38940;SDS011;43236;47.208;7.518;2022-08-21T04:23:45;6.03;;;2.50;;
38940;SDS011;43236;47.208;7.518;2022-08-21T04:26:33;8.73;;;2.78;;
38940;SDS011;43236;47.208;7.518;2022-08-21T04:29:21;9.63;;;3.40;;
38940;SDS011;43236;47.208;7.518;2022-08-21T04:32:08;11.10;;;3.50;;
38940;SDS011;43236;47.208;7.518;2022-08-21T04:34:58;7.65;;;4.00;;
38940;SDS011;43236;47.208;7.518;2022-08-21T04:37:46;7.80;;;4.53;;
38940;SDS011;43236;47.208;7.518;2022-08-21T04:40:34;9.30;;;4.78;;
38940;SDS011;43236;47.208;7.518;2022-08-21T04:43:22;9.05;;;4.97;;
38940;SDS011;43236;47.208;7.518;2022-08-21T04:46:09;12.90;;;5.30;;
38940;SDS011;43236;47.208;7.518;2022-08-21T04:48:57;8.20;;;4.85;;
38940;SDS011;43236;47.208;7.518;2022-08-21T04:51:59;10.02;;;5.18;;
38940;SDS011;43236;47.208;7.518;2022-08-21T04:54:46;8.13;;;4.90;;
38940;SDS011;43236;47.208;7.518;2022-08-21T04:57:36;14.60;;;5.13;;
38940;SDS011;43236;47.208;7.518;2022-08-21T05:00:27;14.23;;;5.15;;
38940;SDS011;43236;47.208;7.518;2022-08-21T05:03:14;9.32;;;5.55;;
38940;SDS011;43236;47.208;7.518;2022-08-21T05:06:04;10.98;;;4.82;;
38940;SDS011;43236;47.208;7.518;2022-08-21T05:08:53;10.02;;;4.80;;
38940;SDS011;43236;47.208;7.518;2022-08-21T05:11:42;9.82;;;4.00;;
38940;SDS011;43236;47.208;7.518;2022-08-21T05:14:29;7.63;;;4.47;;
38940;SDS011;43236;47.208;7.518;2022-08-21T05:17:18;7.38;;;4.38;;
38940;SDS011;43236;47.208;7.518;2022-08-21T05:20:05;9.43;;;4.97;;
38940;SDS011;43236;47.208;7.518;2022-08-21T05:22:53;8.23;;;5.10;;
38940;SDS011;43236;47.208;7.518;2022-08-21T05:25:40;10.98;;;5.45;;
38940;SDS011;43236;47.208;7.518;2022-08-21T05:28:28;8.93;;;4.93;;
38940;SDS011;43236;47.208;7.518;2022-08-21T05:31:15;11.63;;;5.15;;
38940;SDS011;43236;47.208;7.518;2022-08-21T05:34:04;15.55;;;8.07;;
38940;SDS011;43236;47.208;7.518;2022-08-21T05:36:51;18.20;;;7.90;;
38940;SDS011;43236;47.208;7.518;2022-08-21T05:39:38;17.42;;;7.78;;
38940;SDS011;43236;47.208;7.518;2022-08-21T05:42:27;17.38;;;7.53;;
38940;SDS011;43236;47.208;7.518;2022-08-21T05:45:14;18.58;;;7.78;;
38940;SDS011;43236;47.208;7.518;2022-08-21T05:48:05;22.27;;;7.05;;
38940;SDS011;43236;47.208;7.518;2022-08-21T05:50:54;20.30;;;7.63;;
38940;SDS011;43236;47.208;7.518;2022-08-21T05:53:42;21.55;;;7.95;;
38940;SDS011;43236;47.208;7.518;2022-08-21T05:56:30;21.42;;;7.30;;
38940;SDS011;43236;47.208;7.518;2022-08-21T05:59:17;16.50;;;7.22;;
38940;SDS011;43236;47.208;7.518;2022-08-21T06:02:04;17.25;;;6.45;;
38940;SDS011;43236;47.208;7.518;2022-08-21T06:04:52;13.55;;;5.85;;
38940;SDS011;43236;47.208;7.518;2022-08-21T06:07:43;14.35;;;6.30;;
38940;SDS011;43236;47.208;7.518;2022-08-21T06:10:31;13.00;;;6.63;;
38940;SDS011;43236;47.208;7.518;2022-08-21T06:13:18;20.88;;;7.88;;
38940;SDS011;43236;47.208;7.518;2022-08-21T06:16:08;20.50;;;7.35;;
38940;SDS011;43236;47.208;7.518;2022-08-21T06:18:56;17.58;;;7.10;;
38940;SDS011;43236;47.208;7.518;2022-08-21T06:21:43;12.65;;;7.00;;
38940;SDS011;43236;47.208;7.518;2022-08-21T06:24:32;14.75;;;7.28;;
38940;SDS011;43236;47.208;7.518;2022-08-21T06:27:19;12.45;;;6.30;;
38940;SDS011;43236;47.208;7.518;2022-08-21T06:30:07;11.32;;;6.72;;
38940;SDS011;43236;47.208;7.518;2022-08-21T06:32:55;14.73;;;6.90;;
38940;SDS011;43236;47.208;7.518;2022-08-21T06:35:42;13.30;;;7.03;;
38940;SDS011;43236;47.208;7.518;2022-08-21T06:38:29;15.23;;;6.97;;
38940;SDS011;43236;47.208;7.518;2022-08-21T06:41:18;16.92;;;8.93;;
38940;SDS011;43236;47.208;7.518;2022-08-21T06:44:05;16.13;;;8.85;;
38940;SDS011;43236;47.208;7.518;2022-08-21T06:46:52;15.85;;;10.02;;
38940;SDS011;43236;47.208;7.518;2022-08-21T06:49:40;11.10;;;7.13;;
38940;SDS011;43236;47.208;7.518;2022-08-21T06:52:27;11.95;;;7.43;;
38940;SDS011;43236;47.208;7.518;2022-08-21T06:55:14;7.80;;;5.07;;
38940;SDS011;43236;47.208;7.518;2022-08-21T06:58:03;7.85;;;4.57;;
38940;SDS011;43236;47.208;7.518;2022-08-21T07:00:51;13.85;;;6.90;;
38940;SDS011;43236;47.208;7.518;2022-08-21T07:03:40;12.60;;;6.93;;
38940;SDS011;43236;47.208;7.518;2022-08-21T07:06:29;13.48;;;7.43;;
38940;SDS011;43236;47.208;7.518;2022-08-21T07:09:17;10.82;;;6.47;;
38940;SDS011;43236;47.208;7.518;2022-08-21T07:12:04;11.25;;;7.32;;
38940;SDS011;43236;47.208;7.518;2022-08-21T07:14:53;8.68;;;5.25;;
38940;SDS011;43236;47.208;7.518;2022-08-21T07:17:40;7.05;;;4.40;;
38940;SDS011;43236;47.208;7.518;2022-08-21T07:20:28;8.20;;;4.50;;
38940;SDS011;43236;47.208;7.518;2022-08-21T07:23:18;8.77;;;3.72;;
38940;SDS011;43236;47.208;7.518;2022-08-21T07:26:10;11.40;;;5.65;;
38940;SDS011;43236;47.208;7.518;2022-08-21T07:28:57;7.68;;;4.28;;
38940;SDS011;43236;47.208;7.518;2022-08-21T07:31:46;6.20;;;3.67;;
38940;SDS011;43236;47.208;7.518;2022-08-21T07:34:33;6.88;;;3.58;;
38940;SDS011;43236;47.208;7.518;2022-08-21T07:37:20;6.65;;;3.50;;
38940;SDS011;43236;47.208;7.518;2022-08-21T07:40:08;6.20;;;3.45;;
38940;SDS011;43236;47.208;7.518;2022-08-21T07:42:55;5.72;;;3.25;;
38940;SDS011;43236;47.208;7.518;2022-08-21T07:45:42;6.90;;;3.80;;
38940;SDS011;43236;47.208;7.518;2022-08-21T07:48:31;8.15;;;3.75;;
38940;SDS011;43236;47.208;7.518;2022-08-21T07:51:19;7.57;;;3.67;;
38940;SDS011;43236;47.208;7.518;2022-08-21T07:54:09;5.18;;;3.13;;
38940;SDS011;43236;47.208;7.518;2022-08-21T07:56:57;5.28;;;3.30;;
38940;SDS011;43236;47.208;7.518;2022-08-21T07:59:45;7.53;;;3.13;;
38940;SDS011;43236;47.208;7.518;2022-08-21T08:02:32;5.60;;;2.65;;
38940;SDS011;43236;47.208;7.518;2022-08-21T08:05:22;7.32;;;2.90;;
38940;SDS011;43236;47.208;7.518;2022-08-21T08:08:10;4.57;;;2.60;;
38940;SDS011;43236;47.208;7.518;2022-08-21T08:10:57;7.85;;;2.90;;
38940;SDS011;43236;47.208;7.518;2022-08-21T08:13:47;5.13;;;2.97;;
38940;SDS011;43236;47.208;7.518;2022-08-21T08:16:35;5.03;;;2.85;;
38940;SDS011;43236;47.208;7.518;2022-08-21T08:19:23;5.10;;;2.42;;
38940;SDS011;43236;47.208;7.518;2022-08-21T08:22:14;4.45;;;2.20;;
38940;SDS011;43236;47.208;7.518;2022-08-21T08:27:52;5.40;;;2.63;;
38940;SDS011;43236;47.208;7.518;2022-08-21T08:30:39;5.93;;;2.55;;
38940;SDS011;43236;47.208;7.518;2022-08-21T08:33:28;4.95;;;2.60;;
38940;SDS011;43236;47.208;7.518;2022-08-21T08:36:16;4.95;;;2.50;;
38940;SDS011;43236;47.208;7.518;2022-08-21T08:39:05;4.82;;;2.40;;
38940;SDS011;43236;47.208;7.518;2022-08-21T08:41:53;5.72;;;2.53;;
38940;SDS011;43236;47.208;7.518;2022-08-21T08:47:36;5.82;;;2.80;;
38940;SDS011;43236;47.208;7.518;2022-08-21T08:50:27;8.25;;;2.92;;
38940;SDS011;43236;47.208;7.518;2022-08-21T08:53:23;5.47;;;2.60;;
38940;SDS011;43236;47.208;7.518;2022-08-21T08:56:21;4.43;;;2.30;;
38940;SDS011;43236;47.208;7.518;2022-08-21T08:59:15;3.95;;;2.22;;
38940;SDS011;43236;47.208;7.518;2022-08-21T09:02:06;6.20;;;2.03;;
38940;SDS011;43236;47.208;7.518;2022-08-21T09:04:57;4.95;;;2.97;;
38940;SDS011;43236;47.208;7.518;2022-08-21T09:07:47;5.75;;;3.00;;
38940;SDS011;43236;47.208;7.518;2022-08-21T09:10:48;4.85;;;2.40;;
38940;SDS011;43236;47.208;7.518;2022-08-21T09:13:48;5.00;;;2.53;;
38940;SDS011;43236;47.208;7.518;2022-08-21T09:16:40;4.68;;;2.45;;
38940;SDS011;43236;47.208;7.518;2022-08-21T09:19:37;6.88;;;2.83;;
38940;SDS011;43236;47.208;7.518;2022-08-21T09:22:34;4.95;;;2.50;;
38940;SDS011;43236;47.208;7.518;2022-08-21T09:25:31;5.88;;;3.10;;
38940;SDS011;43236;47.208;7.518;2022-08-21T09:28:20;6.57;;;3.13;;
38940;SDS011;43236;47.208;7.518;2022-08-21T09:31:20;5.32;;;3.13;;
38940;SDS011;43236;47.208;7.518;2022-08-21T09:34:10;6.35;;;3.10;;
38940;SDS011;43236;47.208;7.518;2022-08-21T09:36:59;7.00;;;3.97;;
38940;SDS011;43236;47.208;7.518;2022-08-21T09:39:46;5.32;;;3.00;;
38940;SDS011;43236;47.208;7.518;2022-08-21T09:42:34;5.57;;;2.85;;
38940;SDS011;43236;47.208;7.518;2022-08-21T09:45:21;7.28;;;3.15;;
38940;SDS011;43236;47.208;7.518;2022-08-21T09:48:11;5.07;;;2.67;;
38940;SDS011;43236;47.208;7.518;2022-08-21T09:51:05;4.78;;;2.85;;
38940;SDS011;43236;47.208;7.518;2022-08-21T09:53:55;6.43;;;2.90;;
38940;SDS011;43236;47.208;7.518;2022-08-21T09:56:56;5.57;;;3.00;;
38940;SDS011;43236;47.208;7.518;2022-08-21T10:00:08;5.57;;;2.63;;
38940;SDS011;43236;47.208;7.518;2022-08-21T10:03:07;6.25;;;3.15;;
38940;SDS011;43236;47.208;7.518;2022-08-21T10:06:00;5.35;;;3.13;;
38940;SDS011;43236;47.208;7.518;2022-08-21T10:08:50;5.70;;;2.90;;
38940;SDS011;43236;47.208;7.518;2022-08-21T10:11:52;4.30;;;1.98;;
38940;SDS011;43236;47.208;7.518;2022-08-21T10:14:48;4.90;;;2.33;;
38940;SDS011;43236;47.208;7.518;2022-08-21T10:20:35;6.28;;;2.90;;
38940;SDS011;43236;47.208;7.518;2022-08-21T10:23:29;4.22;;;2.30;;
38940;SDS011;43236;47.208;7.518;2022-08-21T10:26:31;4.60;;;2.40;;
38940;SDS011;43236;47.208;7.518;2022-08-21T10:29:35;4.35;;;2.22;;
38940;SDS011;43236;47.208;7.518;2022-08-21T10:32:36;4.75;;;2.80;;
38940;SDS011;43236;47.208;7.518;2022-08-21T10:35:45;4.28;;;2.47;;
38940;SDS011;43236;47.208;7.518;2022-08-21T10:38:44;4.72;;;2.30;;
38940;SDS011;43236;47.208;7.518;2022-08-21T10:41:45;3.78;;;1.60;;
38940;SDS011;43236;47.208;7.518;2022-08-21T10:44:46;6.82;;;2.25;;
38940;SDS011;43236;47.208;7.518;2022-08-21T10:47:41;2.90;;;1.80;;
38940;SDS011;43236;47.208;7.518;2022-08-21T10:50:34;3.45;;;1.30;;
38940;SDS011;43236;47.208;7.518;2022-08-21T10:53:43;3.67;;;1.52;;
38940;SDS011;43236;47.208;7.518;2022-08-21T10:56:39;2.40;;;1.30;;
38940;SDS011;43236;47.208;7.518;2022-08-21T10:59:28;2.38;;;1.15;;
38940;SDS011;43236;47.208;7.518;2022-08-21T11:02:22;2.67;;;1.35;;
38940;SDS011;43236;47.208;7.518;2022-08-21T11:05:17;2.30;;;1.23;;
38940;SDS011;43236;47.208;7.518;2022-08-21T11:08:11;2.47;;;1.40;;
38940;SDS011;43236;47.208;7.518;2022-08-21T11:11:04;3.03;;;1.27;;
38940;SDS011;43236;47.208;7.518;2022-08-21T11:13:57;2.92;;;1.15;;
38940;SDS011;43236;47.208;7.518;2022-08-21T11:16:49;2.88;;;1.40;;
38940;SDS011;43236;47.208;7.518;2022-08-21T11:19:45;1.90;;;1.10;;
38940;SDS011;43236;47.208;7.518;2022-08-21T11:22:41;1.60;;;0.80;;
38940;SDS011;43236;47.208;7.518;2022-08-21T11:25:35;4.20;;;0.82;;
38940;SDS011;43236;47.208;7.518;2022-08-21T11:28:28;3.03;;;1.30;;
38940;SDS011;43236;47.208;7.518;2022-08-21T11:31:23;3.10;;;0.98;;
38940;SDS011;43236;47.208;7.518;2022-08-21T11:34:31;2.45;;;1.13;;
38940;SDS011;43236;47.208;7.518;2022-08-21T11:37:33;3.92;;;0.90;;
38940;SDS011;43236;47.208;7.518;2022-08-21T11:40:36;1.60;;;0.75;;
38940;SDS011;43236;47.208;7.518;2022-08-21T11:43:37;2.47;;;0.90;;
38940;SDS011;43236;47.208;7.518;2022-08-21T11:46:28;3.78;;;1.05;;
38940;SDS011;43236;47.208;7.518;2022-08-21T11:49:27;2.05;;;1.08;;
38940;SDS011;43236;47.208;7.518;2022-08-21T11:52:30;2.03;;;0.98;;
38940;SDS011;43236;47.208;7.518;2022-08-21T11:55:22;1.87;;;0.90;;
38940;SDS011;43236;47.208;7.518;2022-08-21T11:58:14;1.90;;;0.80;;
38940;SDS011;43236;47.208;7.518;2022-08-21T12:01:08;11.82;;;1.30;;
38940;SDS011;43236;47.208;7.518;2022-08-21T12:04:00;1.73;;;0.88;;
38940;SDS011;43236;47.208;7.518;2022-08-21T12:06:50;3.17;;;1.10;;
38940;SDS011;43236;47.208;7.518;2022-08-21T12:09:37;2.22;;;1.00;;
38940;SDS011;43236;47.208;7.518;2022-08-21T12:12:25;2.63;;;0.95;;
38940;SDS011;43236;47.208;7.518;2022-08-21T12:15:25;1.33;;;0.73;;
38940;SDS011;43236;47.208;7.518;2022-08-21T12:18:23;2.97;;;0.85;;
38940;SDS011;43236;47.208;7.518;2022-08-21T12:21:17;2.40;;;0.85;;
38940;SDS011;43236;47.208;7.518;2022-08-21T12:24:15;1.58;;;0.93;;
38940;SDS011;43236;47.208;7.518;2022-08-21T12:27:13;3.42;;;0.93;;
38940;SDS011;43236;47.208;7.518;2022-08-21T12:33:22;2.85;;;0.75;;
38940;SDS011;43236;47.208;7.518;2022-08-21T12:36:13;1.37;;;0.77;;
38940;SDS011;43236;47.208;7.518;2022-08-21T12:39:10;1.45;;;0.70;;
38940;SDS011;43236;47.208;7.518;2022-08-21T12:42:00;5.25;;;0.82;;
38940;SDS011;43236;47.208;7.518;2022-08-21T12:44:53;1.95;;;0.85;;
38940;SDS011;43236;47.208;7.518;2022-08-21T12:47:45;2.35;;;0.55;;
38940;SDS011;43236;47.208;7.518;2022-08-21T12:50:41;1.95;;;0.70;;
38940;SDS011;43236;47.208;7.518;2022-08-21T12:53:31;3.05;;;0.80;;
38940;SDS011;43236;47.208;7.518;2022-08-21T12:56:34;2.10;;;0.70;;
38940;SDS011;43236;47.208;7.518;2022-08-21T12:59:24;1.88;;;0.73;;
38940;SDS011;43236;47.208;7.518;2022-08-21T13:02:15;1.10;;;0.70;;
38940;SDS011;43236;47.208;7.518;2022-08-21T13:05:05;1.00;;;0.50;;
38940;SDS011;43236;47.208;7.518;2022-08-21T13:07:57;1.20;;;0.50;;
38940;SDS011;43236;47.208;7.518;2022-08-21T13:10:44;1.23;;;0.70;;
38940;SDS011;43236;47.208;7.518;2022-08-21T13:13:34;1.08;;;0.60;;
38940;SDS011;43236;47.208;7.518;2022-08-21T13:16:22;0.88;;;0.70;;
38940;SDS011;43236;47.208;7.518;2022-08-21T13:19:16;1.98;;;0.80;;
38940;SDS011;43236;47.208;7.518;2022-08-21T13:22:04;1.20;;;0.40;;
38940;SDS011;43236;47.208;7.518;2022-08-21T13:25:01;1.42;;;0.70;;
38940;SDS011;43236;47.208;7.518;2022-08-21T13:27:56;2.35;;;0.80;;
38940;SDS011;43236;47.208;7.518;2022-08-21T13:30:46;1.70;;;0.60;;
38940;SDS011;43236;47.208;7.518;2022-08-21T13:33:37;1.50;;;0.40;;
38940;SDS011;43236;47.208;7.518;2022-08-21T13:36:26;2.42;;;0.70;;
38940;SDS011;43236;47.208;7.518;2022-08-21T13:39:18;2.42;;;0.75;;
38940;SDS011;43236;47.208;7.518;2022-08-21T13:42:10;1.90;;;0.82;;
38940;SDS011;43236;47.208;7.518;2022-08-21T13:44:58;1.10;;;0.60;;
38940;SDS011;43236;47.208;7.518;2022-08-21T13:47:46;1.25;;;0.55;;
38940;SDS011;43236;47.208;7.518;2022-08-21T13:50:35;1.08;;;0.60;;
38940;SDS011;43236;47.208;7.518;2022-08-21T13:53:27;1.13;;;0.50;;
38940;SDS011;43236;47.208;7.518;2022-08-21T13:56:21;2.83;;;0.70;;
38940;SDS011;43236;47.208;7.518;2022-08-21T13:59:13;3.00;;;0.60;;
38940;SDS011;43236;47.208;7.518;2022-08-21T14:02:12;2.15;;;0.45;;
38940;SDS011;43236;47.208;7.518;2022-08-21T14:05:01;0.70;;;0.40;;
38940;SDS011;43236;47.208;7.518;2022-08-21T14:07:49;1.27;;;0.60;;
38940;SDS011;43236;47.208;7.518;2022-08-21T14:13:37;1.15;;;0.43;;
38940;SDS011;43236;47.208;7.518;2022-08-21T14:16:28;1.02;;;0.50;;
38940;SDS011;43236;47.208;7.518;2022-08-21T14:19:34;2.05;;;0.70;;
38940;SDS011;43236;47.208;7.518;2022-08-21T14:22:27;4.38;;;0.60;;
38940;SDS011;43236;47.208;7.518;2022-08-21T14:25:26;1.55;;;0.40;;
38940;SDS011;43236;47.208;7.518;2022-08-21T14:28:19;1.17;;;0.52;;
38940;SDS011;43236;47.208;7.518;2022-08-21T14:31:11;2.72;;;0.80;;
38940;SDS011;43236;47.208;7.518;2022-08-21T14:34:02;1.85;;;0.57;;
38940;SDS011;43236;47.208;7.518;2022-08-21T14:36:50;6.53;;;3.35;;
38940;SDS011;43236;47.208;7.518;2022-08-21T14:39:37;3.33;;;1.50;;
38940;SDS011;43236;47.208;7.518;2022-08-21T14:42:25;1.35;;;0.82;;
38940;SDS011;43236;47.208;7.518;2022-08-21T14:45:13;2.15;;;0.55;;
38940;SDS011;43236;47.208;7.518;2022-08-21T14:48:04;1.27;;;0.65;;
38940;SDS011;43236;47.208;7.518;2022-08-21T14:50:53;3.20;;;0.65;;
38940;SDS011;43236;47.208;7.518;2022-08-21T14:53:40;1.63;;;0.70;;
38940;SDS011;43236;47.208;7.518;2022-08-21T14:56:27;1.75;;;0.60;;
38940;SDS011;43236;47.208;7.518;2022-08-21T14:59:14;1.42;;;0.63;;
38940;SDS011;43236;47.208;7.518;2022-08-21T15:02:02;1.20;;;0.60;;
38940;SDS011;43236;47.208;7.518;2022-08-21T15:04:49;1.45;;;0.65;;
38940;SDS011;43236;47.208;7.518;2022-08-21T15:07:38;1.45;;;0.50;;
38940;SDS011;43236;47.208;7.518;2022-08-21T15:10:25;1.92;;;0.70;;
38940;SDS011;43236;47.208;7.518;2022-08-21T15:13:13;2.90;;;0.57;;
38940;SDS011;43236;47.208;7.518;2022-08-21T15:16:00;1.27;;;0.47;;
38940;SDS011;43236;47.208;7.518;2022-08-21T15:18:48;2.28;;;0.50;;
38940;SDS011;43236;47.208;7.518;2022-08-21T15:21:35;1.08;;;0.60;;
38940;SDS011;43236;47.208;7.518;2022-08-21T15:24:23;1.70;;;0.60;;
38940;SDS011;43236;47.208;7.518;2022-08-21T15:27:11;1.08;;;0.57;;
38940;SDS011;43236;47.208;7.518;2022-08-21T15:30:00;2.40;;;1.10;;
38940;SDS011;43236;47.208;7.518;2022-08-21T15:32:48;3.55;;;1.02;;
38940;SDS011;43236;47.208;7.518;2022-08-21T15:35:35;2.35;;;1.08;;
38940;SDS011;43236;47.208;7.518;2022-08-21T15:38:22;1.60;;;0.63;;
38940;SDS011;43236;47.208;7.518;2022-08-21T15:41:11;0.90;;;0.60;;
38940;SDS011;43236;47.208;7.518;2022-08-21T15:43:58;2.92;;;1.30;;
38940;SDS011;43236;47.208;7.518;2022-08-21T15:46:46;2.58;;;0.57;;
38940;SDS011;43236;47.208;7.518;2022-08-21T15:49:33;1.10;;;0.40;;
38940;SDS011;43236;47.208;7.518;2022-08-21T15:52:20;2.42;;;0.73;;
38940;SDS011;43236;47.208;7.518;2022-08-21T15:55:08;1.70;;;0.88;;
38940;SDS011;43236;47.208;7.518;2022-08-21T15:57:57;1.65;;;0.60;;
38940;SDS011;43236;47.208;7.518;2022-08-21T16:00:44;1.75;;;0.70;;
38940;SDS011;43236;47.208;7.518;2022-08-21T16:03:32;1.45;;;0.65;;
38940;SDS011;43236;47.208;7.518;2022-08-21T16:06:19;1.75;;;0.60;;
38940;SDS011;43236;47.208;7.518;2022-08-21T16:09:07;1.08;;;0.60;;
38940;SDS011;43236;47.208;7.518;2022-08-21T16:11:54;0.50;;;0.40;;
38940;SDS011;43236;47.208;7.518;2022-08-21T16:14:42;1.35;;;0.60;;
38940;SDS011;43236;47.208;7.518;2022-08-21T16:17:31;1.30;;;0.60;;
38940;SDS011;43236;47.208;7.518;2022-08-21T16:20:20;3.80;;;0.80;;
38940;SDS011;43236;47.208;7.518;2022-08-21T16:23:10;1.00;;;0.50;;
38940;SDS011;43236;47.208;7.518;2022-08-21T16:25:57;1.45;;;0.68;;
38940;SDS011;43236;47.208;7.518;2022-08-21T16:28:45;1.33;;;0.60;;
38940;SDS011;43236;47.208;7.518;2022-08-21T16:31:36;2.40;;;0.70;;
38940;SDS011;43236;47.208;7.518;2022-08-21T16:34:24;1.63;;;0.60;;
38940;SDS011;43236;47.208;7.518;2022-08-21T16:37:12;2.35;;;0.63;;
38940;SDS011;43236;47.208;7.518;2022-08-21T16:39:59;1.05;;;0.45;;
38940;SDS011;43236;47.208;7.518;2022-08-21T16:42:46;4.03;;;0.55;;
38940;SDS011;43236;47.208;7.518;2022-08-21T16:45:34;1.92;;;0.60;;
38940;SDS011;43236;47.208;7.518;2022-08-21T16:48:24;3.22;;;0.80;;
38940;SDS011;43236;47.208;7.518;2022-08-21T16:51:13;2.15;;;0.90;;
38940;SDS011;43236;47.208;7.518;2022-08-21T16:54:02;0.90;;;0.60;;
38940;SDS011;43236;47.208;7.518;2022-08-21T16:56:51;3.33;;;0.80;;
38940;SDS011;43236;47.208;7.518;2022-08-21T16:59:38;3.83;;;0.73;;
38940;SDS011;43236;47.208;7.518;2022-08-21T17:02:28;1.23;;;0.60;;
38940;SDS011;43236;47.208;7.518;2022-08-21T17:05:19;2.40;;;0.70;;
38940;SDS011;43236;47.208;7.518;2022-08-21T17:08:06;1.15;;;0.57;;
38940;SDS011;43236;47.208;7.518;2022-08-21T17:10:54;2.17;;;0.63;;
38940;SDS011;43236;47.208;7.518;2022-08-21T17:13:42;3.53;;;0.65;;
38940;SDS011;43236;47.208;7.518;2022-08-21T17:16:29;2.20;;;0.52;;